Mekele Alula Aba Nega Airport

About
Name: Mekele Alula Aba Nega Airport
Identifier:  MQX/HAMK
Serves:  Mekelle , Ethiopia
Operator:  Ethiopian Airports Enterprise
Public/Private:  Public
Local Time:  20. Jul 11:09 EAT
Description: Alula Aba Nega Airport, also known as Mekelle Airport, is an airport serving Mekelle, the capital city of the Tigray Region in northern Ethiopia. The airport is located 10 km southeast of the city.
Source: Wikipedia
Location
Runways
Identifier Length (m/ft) Surface
11/29 3,604/11,825 Asphalt
Flights per Day
10 flights
Distance: 506km (314mi)
Punctuality
85% (1 flights per day delayed)
Delay Average: 13 minutes
Current Weather
 25 C (Humidity: 27%)
  7kt (12km/h / 8mph) from 120°
  9km (6 mi.)
 METAR HAMK 280900Z 12007KT 9999 25/05 Q1026

Current Flights

Current Delays

Departures
N/A
Arrivals
N/A

Destinations

Top Destinations
Airport Flights
per week
Seats
per week
  Addis Ababa (ADD) 44 3,593 6 513
  Humera (HUE) 0 - 0 0

Airlines & Planes

Top Airlines
Airline Flights
per Day
Seats
per Day
  Ethiopian Airlines 6 513
Top Plane Types
Model Flights Seats
Bombardier Dash 8-400 2.3/day - 0
Boeing B737-800 1.9/day 299/day 299.46666666666664
Bombardier Dash 8-400 1.0/day 78/day 78
Boeing B737-700 0.9/day 86/day 86.53333333333333
Boeing B787-800 0.1/day 36/day 36
Boeing B777-300 0.0/day 13/day 13.3